CheckWX is a tool to help pilots better visualize weather data.  It is not intended as a substitute for an official pre-flight weather briefing.

00:46:10 UTC

CYGW METAR
Kuujjuarapik Airport
Kuujjuarapik, Canada
Current

35 mins ago

CYGW 170011Z AUTO 26014G19KT 200V280 3/4SM -RA BR OVC005 07/07 A2928 RMK SLP915
Observed
Jul-17 @ 00:11 UTC
Wind
  • 260° at 14 KTS
  • Gusting to 19 KTS
Visibility
3/4 SM
Flight Rules
LIFR
Conditions
Light Rain, Mist
Cloud Levels
  • Overcast at 500' AGL
Temperature
C / 45°F
Dewpoint
C / 45°F
Humidity
100%
Altimeter
29.28" Hg
Pressure
991.52 hPa
Previous

44 mins ago

CYGW 170002Z AUTO 22006KT 1 1/4SM -RA BR OVC005 08/07 A2927 RMK SLP912
Observed
Jul-17 @ 00:02 UTC
Wind
  • 220° at 6 KTS
Visibility
1 1/4 SM
Flight Rules
IFR
Conditions
Light Rain, Mist
Cloud Levels
  • Overcast at 500' AGL
Temperature
C / 46°F
Dewpoint
C / 45°F
Humidity
93%
Altimeter
29.27" Hg
Pressure
991.22 hPa
Previous

1 hour ago

CYGW 162345Z AUTO 24016KT 1SM -RA BR VV003 07/06 A2926 RMK SLP910
Observed
Jul-16 @ 23:45 UTC
Wind
  • 240° at 16 KTS
Visibility
1 SM
Flight Rules
LIFR
Conditions
Light Rain, Mist
Cloud Levels
  • Vertical visibility at 300' AGL
Temperature
C / 45°F
Dewpoint
C / 43°F
Humidity
93%
Altimeter
29.26" Hg
Pressure
990.82 hPa